Time;durP1;ratioP1;P1;durP2;ratioP2;P2;SDS_P1;SDS_P2;PMS_P1;PMS_P2;Temp;Humidity;BMP_temperature;BMP_pressure;BME280_temperature;BME280_humidity;BME280_pressure;Samples;Min_cycle;Max_cycle;Signal;HPM_P1;HPM_P2
2022/10/11 00:01:01;;;;;;;1.15;0.40;;;;;;;14.12;100.00;100861.47;7395359;19;20015;-51
2022/10/11 00:03:28;;;;;;;1.38;0.93;;;;;;;13.92;100.00;100870.44;7394655;19;20011;-51
2022/10/11 00:05:54;;;;;;;2.47;0.75;;;;;;;13.61;100.00;100876.31;7393833;19;20420;-51
2022/10/11 00:08:21;;;;;;;4.82;1.10;;;;;;;13.68;100.00;100872.41;7398331;19;20014;-51
2022/10/11 00:11:01;;;;;;;0.30;0.30;;;;;;;13.64;100.00;100877.38;7393706;19;20077;-51
2022/10/11 00:13:28;;;;;;;7.68;2.05;;;;;;;13.40;100.00;100874.50;7393953;19;20485;-51
2022/10/11 00:15:54;;;;;;;0.47;0.20;;;;;;;13.27;100.00;100862.72;7396046;19;20017;-51
2022/10/11 00:18:20;;;;;;;0.57;0.55;;;;;;;13.48;100.00;100863.75;7397688;19;20014;-51
2022/10/11 00:20:47;;;;;;;0.32;0.32;;;;;;;13.07;100.00;100859.66;7393328;19;20089;-52
2022/10/11 00:23:14;;;;;;;0.45;0.32;;;;;;;13.29;100.00;100857.44;7393503;19;20625;-51
2022/10/11 00:25:40;;;;;;;0.40;0.40;;;;;;;13.16;100.00;100859.63;7397168;19;20006;-51
2022/10/11 00:28:07;;;;;;;2.25;0.35;;;;;;;13.03;100.00;100867.41;7396811;19;20014;-51
2022/10/11 00:30:33;;;;;;;0.47;0.47;;;;;;;12.89;100.00;100857.59;7392400;19;20010;-52
2022/10/11 00:32:59;;;;;;;0.52;0.28;;;;;;;12.45;100.00;100861.19;7391570;19;20015;-51
2022/10/11 00:35:25;;;;;;;2.75;0.82;;;;;;;12.33;100.00;100864.88;7393333;19;20066;-52
2022/10/11 00:37:51;;;;;;;1.58;1.23;;;;;;;12.10;100.00;100857.84;7396828;19;20018;-51
2022/10/11 00:40:19;;;;;;;0.85;0.85;;;;;;;12.13;100.00;100854.91;7393627;19;20089;-52
2022/10/11 00:42:46;;;;;;;0.20;0.20;;;;;;;12.26;100.00;100856.81;7392038;19;20014;-52
2022/10/11 00:45:30;;;;;;;0.52;0.52;;;;;;;12.48;100.00;100854.66;7391448;19;20551;-52
2022/10/11 00:48:03;;;;;;;6.53;0.95;;;;;;;12.88;100.00;100846.91;7396126;19;20506;-52
2022/10/11 00:50:32;;;;;;;2.75;0.93;;;;;;;12.98;100.00;100853.25;7391998;19;20010;-52
2022/10/11 00:53:01;;;;;;;7.80;0.85;;;;;;;13.05;100.00;100852.97;7391742;19;20019;-52
2022/10/11 00:55:34;;;;;;;3.70;0.70;;;;;;;13.37;100.00;100855.06;7392132;19;20014;-52
2022/10/11 00:58:00;;;;;;;0.38;0.38;;;;;;;13.20;100.00;100857.44;7395797;19;20550;-52
2022/10/11 01:00:26;;;;;;;7.22;1.00;;;;;;;13.13;100.00;100848.59;7389822;19;20032;-52
2022/10/11 01:02:53;;;;;;;9.98;0.65;;;;;;;13.20;100.00;100851.84;7391635;19;20018;-52
2022/10/11 01:05:20;;;;;;;0.40;0.40;;;;;;;13.02;100.00;100860.22;7390863;19;20007;-52
2022/10/11 01:07:46;;;;;;;2.50;0.50;;;;;;;12.81;100.00;100856.38;7394998;19;20470;-52
2022/10/11 01:10:13;;;;;;;2.95;1.35;;;;;;;12.49;100.00;100859.00;7392349;19;20011;-52
2022/10/11 01:13:12;;;;;;;3.05;1.20;;;;;;;12.83;100.00;100861.50;7390545;19;20010;-52
2022/10/11 01:16:19;;;;;;;8.85;1.63;;;;;;;13.22;100.00;100857.75;7392649;19;20010;-52
2022/10/11 01:19:01;;;;;;;2.58;0.90;;;;;;;13.11;100.00;100857.47;7388931;19;20049;-52
2022/10/11 01:21:49;;;;;;;1.23;1.13;;;;;;;12.87;100.00;100865.69;7391058;19;20039;-51
2022/10/11 01:24:34;;;;;;;0.45;0.45;;;;;;;12.75;100.00;100868.66;7390126;19;20357;-52
2022/10/11 01:27:24;;;;;;;1.13;1.02;;;;;;;12.42;100.00;100862.09;7391818;19;20021;-53
2022/10/11 01:30:03;;;;;;;0.95;0.60;;;;;;;12.45;100.00;100861.94;7391063;19;20014;-52
2022/10/11 01:32:53;;;;;;;5.80;1.23;;;;;;;12.11;100.00;100856.59;7391381;19;20083;-52
2022/10/11 01:35:28;;;;;;;0.60;0.60;;;;;;;12.65;100.00;100864.28;7391220;19;20014;-52
2022/10/11 01:38:15;;;;;;;0.73;0.73;;;;;;;12.69;100.00;100860.09;7392936;19;20015;-53
2022/10/11 01:40:51;;;;;;;1.38;0.75;;;;;;;12.44;100.00;100862.41;7391466;19;20015;-52
2022/10/11 01:43:19;;;;;;;0.52;0.52;;;;;;;12.57;100.00;100852.66;7392560;19;20026;-52
2022/10/11 01:45:50;;;;;;;1.55;0.63;;;;;;;12.39;100.00;100855.41;7394379;19;20010;-53
2022/10/11 01:48:16;;;;;;;0.82;0.70;;;;;;;12.44;100.00;100856.81;7395127;19;20045;-53
2022/10/11 01:50:44;;;;;;;0.22;0.22;;;;;;;12.28;100.00;100854.34;7392282;19;20102;-52
2022/10/11 01:53:30;;;;;;;0.80;0.50;;;;;;;12.21;100.00;100854.63;7393233;19;20019;-52
2022/10/11 01:55:56;;;;;;;0.75;0.75;;;;;;;11.98;100.00;100848.34;7394557;19;20030;-52
2022/10/11 01:58:47;;;;;;;0.20;0.10;;;;;;;11.92;100.00;100847.41;7397882;19;20459;-52
2022/10/11 02:01:37;;;;;;;3.00;0.75;;;;;;;11.73;100.00;100848.59;7393861;19;20021;-52
2022/10/11 02:04:18;;;;;;;0.70;0.70;;;;;;;11.62;100.00;100856.56;7392535;19;20015;-52
2022/10/11 02:07:08;;;;;;;1.40;0.30;;;;;;;11.52;100.00;100852.16;7395206;19;20030;-52
2022/10/11 02:09:37;;;;;;;3.92;1.25;;;;;;;11.66;100.00;100850.84;7393639;19;20018;-53
2022/10/11 02:12:11;;;;;;;10.68;1.52;;;;;;;11.74;100.00;100852.13;7395093;19;20033;-52
2022/10/11 02:14:45;;;;;;;0.88;0.43;;;;;;;11.79;100.00;100854.34;7395200;19;20017;-51
2022/10/11 02:17:17;;;;;;;2.25;0.93;;;;;;;11.62;100.00;100847.41;7396049;19;20459;-52
2022/10/11 02:19:49;;;;;;;3.63;0.73;;;;;;;11.60;100.00;100847.09;7392181;19;20016;-52
2022/10/11 02:22:30;;;;;;;0.82;0.82;;;;;;;11.82;100.00;100843.06;7391971;19;20011;-52
2022/10/11 02:25:00;;;;;;;4.93;0.75;;;;;;;12.16;100.00;100842.03;7391309;19;20011;-52
2022/10/11 02:27:29;;;;;;;0.88;0.50;;;;;;;12.47;100.00;100839.13;7393447;19;20032;-52
2022/10/11 02:29:58;;;;;;;0.70;0.70;;;;;;;12.51;100.00;100839.75;7390054;19;20011;-52
2022/10/11 02:32:26;;;;;;;0.63;0.55;;;;;;;12.59;100.00;100838.19;7390571;19;20086;-53
2022/10/11 02:34:55;;;;;;;0.38;0.38;;;;;;;12.50;100.00;100841.00;7388090;19;20014;-52
2022/10/11 02:37:35;;;;;;;0.45;0.45;;;;;;;13.07;100.00;100845.66;7391998;19;20021;-53
2022/10/11 02:40:05;;;;;;;5.97;1.03;;;;;;;13.13;100.00;100834.59;7389173;19;20037;-53
2022/10/11 02:42:39;;;;;;;0.43;0.43;;;;;;;13.40;100.00;100840.94;7387936;19;20262;-52
2022/10/11 02:45:09;;;;;;;1.20;0.75;;;;;;;12.93;100.00;100840.66;7387898;19;20021;-53
2022/10/11 02:47:35;;;;;;;1.70;0.73;;;;;;;13.32;100.00;100850.13;7392386;19;20010;-53
2022/10/11 02:50:02;;;;;;;0.93;0.50;;;;;;;13.30;100.00;100844.97;7395210;19;20270;-53
2022/10/11 02:52:28;;;;;;;2.55;1.08;;;;;;;13.45;100.00;100854.25;7396171;19;20011;-53
2022/10/11 02:54:54;;;;;;;0.82;0.75;;;;;;;13.06;100.00;100854.53;7397055;19;20007;-52
2022/10/11 02:57:21;;;;;;;0.40;0.40;;;;;;;12.99;100.00;100852.81;7399767;19;20431;-53
2022/10/11 02:59:47;;;;;;;0.30;0.30;;;;;;;13.35;100.00;100855.53;7397172;19;20010;-53
2022/10/11 03:02:13;;;;;;;0.38;0.38;;;;;;;13.45;100.00;100854.25;7396147;19;20021;-53
2022/10/11 03:04:39;;;;;;;0.50;0.50;;;;;;;13.38;100.00;100851.78;7394549;19;20006;-52
2022/10/11 03:07:05;;;;;;;0.47;0.47;;;;;;;13.79;100.00;100850.25;7398480;19;20458;-52
2022/10/11 03:09:32;;;;;;;0.40;0.40;;;;;;;12.91;100.00;100848.75;7395523;19;20070;-53
2022/10/11 03:11:58;;;;;;;2.65;0.90;;;;;;;13.54;100.00;100859.06;7395540;19;20014;-53
2022/10/11 03:14:24;;;;;;;0.40;0.40;;;;;;;13.00;100.00;100857.13;7395736;19;20006;-53
2022/10/11 03:16:50;;;;;;;1.08;0.68;;;;;;;14.01;100.00;100850.00;7399489;19;20019;-53
2022/10/11 03:19:16;;;;;;;0.75;0.75;;;;;;;14.22;100.00;100854.53;7394620;19;20022;-52
2022/10/11 03:21:42;;;;;;;0.60;0.60;;;;;;;14.22;100.00;100848.94;7396007;19;20010;-53
2022/10/11 03:24:08;;;;;;;8.07;0.80;;;;;;;13.96;100.00;100848.63;7395439;19;20056;-52
2022/10/11 03:26:34;;;;;;;3.63;1.20;;;;;;;14.05;100.00;100850.59;7396263;19;20014;-53
2022/10/11 03:29:01;;;;;;;1.65;0.50;;;;;;;14.41;100.00;100847.59;7395907;19;20010;-53
2022/10/11 03:31:27;;;;;;;0.20;0.20;;;;;;;14.21;100.00;100853.75;7395532;19;20022;-53
2022/10/11 03:33:53;;;;;;;0.55;0.55;;;;;;;14.28;100.00;100852.63;7395316;19;20324;-53
2022/10/11 03:36:19;;;;;;;0.50;0.50;;;;;;;13.88;100.00;100846.66;7394321;19;20018;-52
2022/10/11 03:38:45;;;;;;;0.45;0.45;;;;;;;13.87;100.00;100847.88;7395214;19;20023;-52
2022/10/11 03:41:11;;;;;;;0.65;0.55;;;;;;;14.01;100.00;100838.81;7395446;19;20011;-53
2022/10/11 03:43:37;;;;;;;0.30;0.30;;;;;;;14.38;100.00;100848.53;7394703;19;20017;-53
2022/10/11 03:46:03;;;;;;;0.20;0.20;;;;;;;14.21;100.00;100852.97;7397236;19;20033;-53
2022/10/11 03:48:30;;;;;;;1.25;0.47;;;;;;;14.34;100.00;100850.75;7398704;19;20485;-53
2022/10/11 03:50:56;;;;;;;0.50;0.50;;;;;;;14.25;100.00;100848.00;7393708;19;20739;-52
2022/10/11 03:53:23;;;;;;;3.85;1.45;;;;;;;14.22;100.00;100854.53;7396131;19;20011;-52
2022/10/11 03:55:53;;;;;;;1.00;0.98;;;;;;;13.14;100.00;100850.16;7394154;19;20015;-52
2022/10/11 03:58:20;;;;;;;4.18;0.52;;;;;;;13.88;100.00;100858.59;7398983;19;20018;-53
2022/10/11 04:00:47;;;;;;;0.17;0.17;;;;;;;13.86;100.00;100863.16;7393016;19;20007;-53
2022/10/11 04:03:13;;;;;;;4.85;0.70;;;;;;;13.71;100.00;100870.69;7392389;19;20455;-53
2022/10/11 04:05:40;;;;;;;0.28;0.28;;;;;;;13.47;100.00;100867.81;7394630;19;20022;-53
2022/10/11 04:08:06;;;;;;;5.60;0.80;;;;;;;13.07;100.00;100862.44;7397984;19;20042;-52
2022/10/11 04:10:32;;;;;;;0.60;0.47;;;;;;;12.44;100.00;100865.97;7395375;19;20071;-53
2022/10/11 04:12:58;;;;;;;0.55;0.55;;;;;;;12.75;100.00;100869.44;7393797;19;20018;-53
2022/10/11 04:15:24;;;;;;;1.52;0.63;;;;;;;12.85;100.00;100872.97;7395057;19;20018;-53
2022/10/11 04:17:50;;;;;;;2.20;0.73;;;;;;;12.87;100.00;100871.28;7396805;19;20452;-53
2022/10/11 04:20:16;;;;;;;3.30;0.60;;;;;;;12.77;100.00;100868.97;7394792;19;20521;-53
2022/10/11 04:22:42;;;;;;;0.22;0.22;;;;;;;12.89;100.00;100868.78;7393607;19;20022;-53
2022/10/11 04:25:09;;;;;;;1.05;0.70;;;;;;;12.79;100.00;100874.84;7394817;19;20011;-53
2022/10/11 04:27:35;;;;;;;0.15;0.15;;;;;;;12.77;100.00;100872.53;7396247;19;20021;-53
2022/10/11 04:30:02;;;;;;;1.05;1.05;;;;;;;7.65;100.00;100882.38;7393525;19;20086;-53
2022/10/11 04:32:28;;;;;;;0.40;0.40;;;;;;;10.81;100.00;100865.19;7394139;19;20014;-52
2022/10/11 04:34:55;;;;;;;1.48;0.30;;;;;;;11.80;100.00;100875.44;7394162;19;20019;-52
2022/10/11 04:37:21;;;;;;;0.82;0.57;;;;;;;12.14;100.00;100873.22;7395370;19;20353;-53
2022/10/11 04:39:47;;;;;;;0.57;0.57;;;;;;;12.47;100.00;100872.66;7393536;19;20014;-53
2022/10/11 04:42:13;;;;;;;0.28;0.28;;;;;;;12.33;100.00;100876.81;7393039;19;20022;-52
2022/10/11 04:44:39;;;;;;;0.30;0.30;;;;;;;12.29;100.00;100881.00;7391950;19;20011;-53
2022/10/11 04:47:05;;;;;;;0.50;0.50;;;;;;;12.54;100.00;100875.16;7397817;19;20010;-53
2022/10/11 04:49:34;;;;;;;0.30;0.30;;;;;;;12.24;100.00;100881.59;7389813;19;20014;-52
2022/10/11 04:52:00;;;;;;;0.30;0.30;;;;;;;12.05;100.00;100878.78;7390836;19;20471;-51
2022/10/11 04:54:26;;;;;;;0.17;0.17;;;;;;;12.29;100.00;100889.38;7391610;19;20024;-52
2022/10/11 04:56:52;;;;;;;1.73;0.30;;;;;;;12.27;100.00;100886.28;7392066;19;20015;-52
2022/10/11 04:59:19;;;;;;;2.50;0.60;;;;;;;12.01;100.00;100894.91;7391158;19;20007;-53
2022/10/11 05:01:45;;;;;;;4.70;0.40;;;;;;;12.02;100.00;100895.66;7388375;19;20481;-52
2022/10/11 05:04:11;;;;;;;0.15;0.15;;;;;;;12.07;100.00;100893.06;7392478;19;20466;-52
2022/10/11 05:06:37;;;;;;;0.40;0.40;;;;;;;12.16;100.00;100895.09;7392854;19;20003;-52
2022/10/11 05:09:03;;;;;;;0.95;0.95;;;;;;;12.13;100.00;100893.22;7392093;19;20094;-52
2022/10/11 05:11:30;;;;;;;0.17;0.17;;;;;;;12.08;100.00;100900.19;7390404;19;20010;-52
2022/10/11 05:13:56;;;;;;;0.77;0.68;;;;;;;11.85;100.00;100894.34;7390835;19;20010;-52
2022/10/11 05:16:22;;;;;;;0.55;0.55;;;;;;;11.97;100.00;100888.69;7394295;19;20006;-51
2022/10/11 05:18:48;;;;;;;0.57;0.35;;;;;;;9.92;100.00;100905.56;7392247;19;20014;-52
2022/10/11 05:21:20;;;;;;;0.17;0.17;;;;;;;11.95;100.00;100891.13;7391270;19;20010;-52
2022/10/11 05:23:48;;;;;;;0.95;0.70;;;;;;;12.20;100.00;100890.13;7390452;19;20658;-52
2022/10/11 05:26:15;;;;;;;2.38;0.80;;;;;;;12.29;100.00;100892.97;7391328;19;20015;-52
2022/10/11 05:28:41;;;;;;;0.90;0.90;;;;;;;12.25;100.00;100885.97;7391434;19;20011;-53
2022/10/11 05:31:07;;;;;;;7.47;0.75;;;;;;;12.37;100.00;100890.63;7390181;19;20074;-52
2022/10/11 05:33:42;;;;;;;1.08;0.40;;;;;;;12.76;100.00;100895.34;7424828;19;20352;-52
2022/10/11 05:36:09;;;;;;;7.22;0.60;;;;;;;11.68;100.00;100898.63;7423106;19;20010;-52
2022/10/11 05:38:36;;;;;;;0.80;0.80;;;;;;;12.52;100.00;100899.97;7427123;19;20010;-52
2022/10/11 05:41:03;;;;;;;0.40;0.40;;;;;;;12.51;100.00;100898.44;7422007;19;20471;-52
2022/10/11 05:43:30;;;;;;;0.35;0.35;;;;;;;12.60;100.00;100895.66;7422427;19;20025;-52
2022/10/11 05:45:57;;;;;;;0.15;0.15;;;;;;;10.42;100.00;100902.78;7424900;19;20027;-53
2022/10/11 05:48:25;;;;;;;6.22;0.55;;;;;;;11.15;100.00;100897.84;7427841;19;20025;-52
2022/10/11 05:50:52;;;;;;;1.30;0.30;;;;;;;12.18;100.00;100899.00;7422242;19;20622;-52
2022/10/11 05:53:18;;;;;;;0.38;0.35;;;;;;;11.98;100.00;100895.81;7422086;19;20018;-52
2022/10/11 05:55:44;;;;;;;2.03;0.95;;;;;;;12.17;100.00;100897.41;7425378;19;20030;-52
2022/10/11 05:58:12;;;;;;;1.45;0.65;;;;;;;12.04;100.00;100905.13;7427055;19;20014;-52
2022/10/11 06:00:39;;;;;;;0.52;0.50;;;;;;;11.96;100.00;100905.88;7423923;19;20014;-52
2022/10/11 06:03:07;;;;;;;1.00;1.00;;;;;;;11.71;100.00;100904.09;7425496;19;20017;-52
2022/10/11 06:05:34;;;;;;;1.85;0.85;;;;;;;11.63;100.00;100908.34;7424556;19;20010;-52
2022/10/11 06:08:01;;;;;;;0.90;0.85;;;;;;;11.72;100.00;100911.19;7428310;19;20021;-52
2022/10/11 06:10:27;;;;;;;4.78;1.02;;;;;;;11.62;100.00;100906.78;7424450;19;20038;-52
2022/10/11 06:12:53;;;;;;;0.77;0.77;;;;;;;11.57;100.00;100904.59;7420937;19;20010;-52
2022/10/11 06:15:19;;;;;;;0.60;0.60;;;;;;;11.57;100.00;100910.16;7425312;19;20010;-52
2022/10/11 06:17:46;;;;;;;0.20;0.20;;;;;;;11.69;100.00;100916.94;7427511;19;20010;-53
2022/10/11 06:20:12;;;;;;;1.33;0.85;;;;;;;11.77;100.00;100912.63;7424667;19;20447;-53
2022/10/11 06:22:39;;;;;;;1.88;0.85;;;;;;;11.60;100.00;100914.06;7424484;19;20026;-52
2022/10/11 06:25:06;;;;;;;0.43;0.40;;;;;;;11.65;100.00;100914.22;7427367;19;20011;-52
2022/10/11 06:27:32;;;;;;;0.20;0.20;;;;;;;11.80;100.00;100911.72;7426255;19;20078;-52
2022/10/11 06:29:59;;;;;;;1.40;0.57;;;;;;;11.93;100.00;100909.59;7423520;19;20018;-52
2022/10/11 06:32:25;;;;;;;1.45;0.77;;;;;;;11.95;100.00;100912.72;7423241;19;20078;-52
2022/10/11 06:34:51;;;;;;;0.25;0.25;;;;;;;11.88;100.00;100913.78;7424822;19;20015;-52
2022/10/11 06:37:17;;;;;;;0.22;0.20;;;;;;;11.83;100.00;100917.16;7425451;19;20018;-52
2022/10/11 06:39:44;;;;;;;0.52;0.52;;;;;;;12.02;100.00;100915.97;7423322;19;20024;-52
2022/10/11 06:42:10;;;;;;;4.13;0.32;;;;;;;11.69;100.00;100923.31;7424589;19;20022;-51
2022/10/11 06:44:37;;;;;;;8.55;0.65;;;;;;;11.80;100.00;100922.88;7400902;19;20006;-52
2022/10/11 06:47:07;;;;;;;0.10;0.10;;;;;;;11.77;100.00;100924.56;7400142;19;20070;-52
2022/10/11 06:49:34;;;;;;;0.22;0.22;;;;;;;11.62;100.00;100922.75;7392432;19;20051;-52
2022/10/11 06:52:00;;;;;;;0.55;0.30;;;;;;;11.65;100.00;100927.44;7394014;19;20050;-51
2022/10/11 06:54:27;;;;;;;0.25;0.25;;;;;;;11.71;100.00;100920.81;7394854;19;20365;-52
2022/10/11 06:56:53;;;;;;;0.35;0.32;;;;;;;11.66;100.00;100918.59;7396465;19;20327;-52
2022/10/11 06:59:19;;;;;;;0.52;0.47;;;;;;;11.60;100.00;100920.44;7395110;19;20010;-52
2022/10/11 07:01:45;;;;;;;2.65;0.75;;;;;;;11.41;100.00;100918.75;7394899;19;20359;-52
2022/10/11 07:04:11;;;;;;;16.88;1.40;;;;;;;11.63;100.00;100925.06;7393981;19;20010;-52
2022/10/11 07:06:39;;;;;;;1.00;0.40;;;;;;;11.71;100.00;100926.41;7394082;19;20019;-52
2022/10/11 07:09:06;;;;;;;1.00;0.95;;;;;;;11.69;100.00;100923.31;7394326;19;20011;-52
2022/10/11 07:11:33;;;;;;;1.13;0.45;;;;;;;11.81;100.00;100918.84;7394411;19;20479;-52
2022/10/11 07:14:03;;;;;;;1.30;0.80;;;;;;;12.06;100.00;100924.25;7395196;19;20007;-52
2022/10/11 07:16:29;;;;;;;21.20;2.22;;;;;;;12.10;100.00;100927.66;7396131;19;20101;-52
2022/10/11 07:18:58;;;;;;;1.58;1.38;;;;;;;11.51;100.00;100928.75;7393366;19;20082;-52
2022/10/11 07:21:25;;;;;;;12.60;3.05;;;;;;;11.91;100.00;100924.00;7393125;19;20351;-52
2022/10/11 07:23:51;;;;;;;2.65;1.73;;;;;;;11.88;100.00;100916.56;7394807;19;20023;-52
2022/10/11 07:26:18;;;;;;;1.92;1.05;;;;;;;11.80;100.00;100923.63;7393805;19;20087;-52
2022/10/11 07:28:45;;;;;;;0.95;0.75;;;;;;;11.77;100.00;100935.72;7392797;19;20014;-52
2022/10/11 07:31:15;;;;;;;4.05;1.42;;;;;;;11.67;100.00;100931.34;7394058;19;20011;-52
2022/10/11 07:33:41;;;;;;;0.88;0.82;;;;;;;11.97;100.00;100932.56;7391532;19;20017;-51
2022/10/11 07:36:09;;;;;;;1.58;0.90;;;;;;;12.23;100.00;100933.13;7393566;19;20040;-51
2022/10/11 07:38:39;;;;;;;2.60;1.38;;;;;;;12.25;100.00;100933.44;7398688;19;20014;-52
2022/10/11 07:41:06;;;;;;;2.15;1.13;;;;;;;12.36;100.00;100931.78;7393077;19;20088;-51
2022/10/11 07:43:32;;;;;;;1.67;0.80;;;;;;;12.33;100.00;100935.47;7393089;19;20011;-51
2022/10/11 07:46:02;;;;;;;5.40;0.65;;;;;;;12.39;100.00;100930.09;7395433;19;20018;-51
2022/10/11 07:48:30;;;;;;;1.13;0.50;;;;;;;12.45;100.00;100937.38;7395575;19;20014;-52
2022/10/11 07:51:02;;;;;;;3.13;0.80;;;;;;;12.48;100.00;100947.63;7390570;19;20344;-52
2022/10/11 07:53:28;;;;;;;1.20;1.05;;;;;;;12.75;100.00;100947.69;7391197;19;20351;-51
2022/10/11 07:55:58;;;;;;;0.75;0.75;;;;;;;12.54;100.00;100942.97;7390759;19;20459;-52
2022/10/11 07:58:24;;;;;;;1.42;0.55;;;;;;;12.60;100.00;100945.97;7397120;19;20421;-51
2022/10/11 08:00:54;;;;;;;0.75;0.55;;;;;;;12.56;100.00;100942.53;7392888;19;20527;-52
2022/10/11 08:03:20;;;;;;;9.60;1.02;;;;;;;12.81;100.00;100945.84;7391268;19;20373;-51
2022/10/11 08:05:47;;;;;;;0.22;0.22;;;;;;;12.92;100.00;100939.78;7392323;19;20021;-51
2022/10/11 08:08:13;;;;;;;6.00;2.15;;;;;;;11.42;100.00;100937.03;7394570;19;20471;-51
2022/10/11 08:10:40;;;;;;;0.80;0.80;;;;;;;7.10;100.00;100951.66;7392281;19;20006;-51
2022/10/11 08:13:06;;;;;;;0.75;0.55;;;;;;;6.44;100.00;100953.63;7391530;19;20340;-52
2022/10/11 08:15:32;;;;;;;1.05;0.77;;;;;;;6.31;100.00;100952.66;7393608;19;20018;-52
2022/10/11 08:17:58;;;;;;;2.03;1.13;;;;;;;6.17;100.00;100961.97;7395438;19;20628;-52
2022/10/11 08:20:24;;;;;;;6.72;1.50;;;;;;;6.23;100.00;100962.25;7392379;19;20734;-51
2022/10/11 08:22:51;;;;;;;5.00;0.35;;;;;;;6.10;100.00;100962.06;7393106;19;20052;-52
2022/10/11 08:25:17;;;;;;;2.55;1.08;;;;;;;6.08;100.00;100959.72;7395422;19;20014;-52
2022/10/11 08:27:43;;;;;;;1.80;0.60;;;;;;;6.16;100.00;100970.66;7393498;19;20017;-52
2022/10/11 08:30:10;;;;;;;0.82;0.63;;;;;;;6.16;100.00;100967.91;7391306;19;20010;-51
2022/10/11 08:32:36;;;;;;;0.90;0.90;;;;;;;6.26;100.00;100958.69;7390656;19;20015;-51
2022/10/11 08:35:02;;;;;;;1.60;0.43;;;;;;;6.31;100.00;100970.03;7391726;19;20018;-52
2022/10/11 08:37:29;;;;;;;8.93;1.30;;;;;;;6.34;100.00;100973.94;7393722;19;20015;-52
2022/10/11 08:39:55;;;;;;;1.58;0.73;;;;;;;6.51;100.00;100970.09;7392101;19;20023;-52
2022/10/11 08:42:41;;;;;;;2.47;1.33;;;;;;;6.32;100.00;100979.13;7390056;19;20022;-52
2022/10/11 08:45:18;;;;;;;1.98;0.95;;;;;;;6.46;100.00;100974.13;7390679;19;20022;-51
2022/10/11 08:47:46;;;;;;;3.20;1.38;;;;;;;6.62;100.00;100973.47;7392556;19;20011;-51
2022/10/11 08:50:21;;;;;;;0.57;0.57;;;;;;;6.74;100.00;100965.34;7390852;19;20015;-52
2022/10/11 08:52:58;;;;;;;0.65;0.65;;;;;;;6.82;100.00;100964.00;7389181;19;20034;-52
2022/10/11 08:55:38;;;;;;;0.93;0.90;;;;;;;6.80;100.00;100971.16;7391181;19;20015;-52
2022/10/11 08:58:04;;;;;;;0.57;0.57;;;;;;;6.87;100.00;100977.38;7394795;19;20011;-51
2022/10/11 09:00:35;;;;;;;1.40;1.27;;;;;;;6.93;100.00;100966.59;7391458;19;20028;-52
2022/10/11 09:03:14;;;;;;;0.85;0.75;;;;;;;6.96;100.00;100962.97;7390257;19;20014;-52
2022/10/11 09:06:13;;;;;;;2.08;1.10;;;;;;;7.04;100.00;100966.41;7389682;19;20055;-52
2022/10/11 09:09:09;;;;;;;0.70;0.70;;;;;;;7.10;100.00;100968.25;7390977;19;20015;-52
2022/10/11 09:11:55;;;;;;;1.75;1.05;;;;;;;7.18;100.00;100963.34;7389048;19;20014;-52
2022/10/11 09:14:33;;;;;;;0.43;0.35;;;;;;;7.22;100.00;100970.38;7391161;19;20110;-51
2022/10/11 09:17:17;;;;;;;0.63;0.47;;;;;;;7.33;100.00;100962.66;7394466;19;20073;-52
2022/10/11 09:20:01;;;;;;;2.15;0.50;;;;;;;7.40;100.00;100959.75;7390118;19;20024;-52
2022/10/11 09:22:43;;;;;;;0.22;0.20;;;;;;;7.61;100.00;100958.50;7389521;19;20011;-51
2022/10/11 09:25:15;;;;;;;0.68;0.68;;;;;;;7.82;100.00;100951.75;7392234;19;20018;-57
2022/10/11 09:28:03;;;;;;;1.95;0.77;;;;;;;8.02;100.00;100952.44;7393570;19;20070;-57
2022/10/11 09:30:30;;;;;;;3.03;0.30;;;;;;;8.19;100.00;100962.34;7389917;19;20102;-56
2022/10/11 09:33:15;;;;;;;0.80;0.80;;;;;;;11.30;100.00;100940.69;7388197;19;20026;-56
2022/10/11 09:35:50;;;;;;;0.30;0.28;;;;;;;11.94;100.00;100931.47;7390367;19;20011;-56
2022/10/11 09:38:45;;;;;;;7.32;0.77;;;;;;;11.83;100.00;100939.47;7391312;19;20015;-56
2022/10/11 09:41:29;;;;;;;0.50;0.50;;;;;;;12.85;100.00;100940.88;7390281;19;20021;-56
2022/10/11 09:43:56;;;;;;;0.20;0.10;;;;;;;13.14;100.00;100934.84;7390185;19;20016;-56
2022/10/11 09:46:36;;;;;;;0.60;0.28;;;;;;;13.18;100.00;100929.88;7392711;19;20359;-56
2022/10/11 09:49:08;;;;;;;0.40;0.40;;;;;;;14.37;100.00;100931.84;7390484;19;20492;-56
2022/10/11 09:51:35;;;;;;;2.15;0.60;;;;;;;14.76;100.00;100929.09;7389061;19;20378;-56
2022/10/11 09:54:04;;;;;;;1.10;0.50;;;;;;;15.15;100.00;100928.66;7389753;19;20031;-56
2022/10/11 09:56:33;;;;;;;0.52;0.20;;;;;;;15.40;100.00;100932.16;7390767;19;20014;-56
2022/10/11 09:59:24;;;;;;;0.80;0.68;;;;;;;14.34;100.00;100934.81;7389345;19;20087;-56
2022/10/11 10:02:19;;;;;;;0.23;0.23;;;;;;;14.02;100.00;100929.97;7389909;19;20062;-51
2022/10/11 10:05:15;;;;;;;0.57;0.45;;;;;;;14.77;100.00;100944.69;7388249;19;20044;-51
2022/10/11 10:07:59;;;;;;;0.30;0.20;;;;;;;15.66;100.00;100941.56;7391394;19;20014;-51
2022/10/11 10:10:43;;;;;;;0.30;0.20;;;;;;;15.51;100.00;100929.56;7388840;19;20021;-51
2022/10/11 10:13:26;;;;;;;0.45;0.32;;;;;;;16.00;100.00;100932.47;7387806;19;20368;-51
2022/10/11 10:15:57;;;;;;;2.53;0.20;;;;;;;15.84;100.00;100930.16;7390037;19;20511;-51
2022/10/11 10:18:34;;;;;;;;;;;;;;;15.93;100.00;100921.63;7393350;19;20007;-52
2022/10/11 10:21:02;;;;;;;0.73;0.57;;;;;;;16.30;100.00;100919.88;7396908;19;20327;-52
2022/10/11 10:23:34;;;;;;;15.60;0.63;;;;;;;15.86;100.00;100922.00;7395820;19;20013;-51
2022/10/11 10:26:21;;;;;;;0.85;0.43;;;;;;;15.66;100.00;100935.97;7400513;19;20014;-51
2022/10/11 10:29:08;;;;;;;0.85;0.20;;;;;;;16.01;100.00;100916.34;7396169;19;20033;-52
2022/10/11 10:31:49;;;;;;;1.08;0.40;;;;;;;16.49;100.00;100918.38;7395813;19;20013;-51
2022/10/11 10:34:21;;;;;;;13.10;0.93;;;;;;;16.50;100.00;100919.94;7395827;19;20011;-51
2022/10/11 10:36:54;;;;;;;1.40;0.40;;;;;;;16.97;100.00;100912.34;7396701;19;20353;-51
2022/10/11 10:39:27;;;;;;;0.10;0.10;;;;;;;17.16;100.00;100930.47;7394194;19;20014;-52
2022/10/11 10:41:54;;;;;;;0.93;0.17;;;;;;;16.73;100.00;100931.47;7395861;19;20042;-51
2022/10/11 10:44:20;;;;;;;0.68;0.68;;;;;;;16.60;100.00;100921.38;7395904;19;20066;-51
2022/10/11 10:46:59;;;;;;;0.50;0.32;;;;;;;16.84;100.00;100928.81;7399364;19;20017;-50
2022/10/11 10:49:43;;;;;;;0.10;0.10;;;;;;;17.33;100.00;100923.75;7394731;19;20014;-51
2022/10/11 10:52:28;;;;;;;0.45;0.32;;;;;;;17.36;100.00;100919.94;7393351;19;20042;-51
2022/10/11 10:54:57;;;;;;;2.95;0.25;;;;;;;17.35;100.00;100920.44;7394187;19;20010;-51
2022/10/11 10:57:43;;;;;;;1.05;0.20;;;;;;;17.26;100.00;100923.44;7396645;19;20021;-52
2022/10/11 11:00:14;;;;;;;2.60;1.45;;;;;;;17.31;100.00;100919.88;7394488;19;20066;-51
2022/10/11 11:02:49;;;;;;;0.43;0.30;;;;;;;17.31;100.00;100908.63;7395032;19;20052;-51
2022/10/11 11:05:30;;;;;;;0.25;0.25;;;;;;;17.44;100.00;100917.44;7394562;19;20011;-51
2022/10/11 11:08:38;;;;;;;0.30;0.30;;;;;;;17.37;100.00;100912.25;7397535;19;20406;-51
2022/10/11 11:11:19;;;;;;;0.20;0.20;;;;;;;17.70;100.00;100912.59;7388975;19;20039;-52
2022/10/11 11:13:57;;;;;;;0.10;0.10;;;;;;;18.40;100.00;100901.56;7389890;19;20014;-51
2022/10/11 11:16:29;;;;;;;2.63;0.65;;;;;;;18.17;100.00;100909.13;7396546;19;20014;-51
2022/10/11 11:19:06;;;;;;;0.10;0.10;;;;;;;17.62;100.00;100911.53;7392945;19;20010;-51
2022/10/11 11:22:05;;;;;;;4.78;0.40;;;;;;;18.18;100.00;100909.91;7396431;19;20345;-51
2022/10/11 11:24:58;;;;;;;5.43;0.57;;;;;;;18.32;100.00;100911.03;7394861;19;20010;-51
2022/10/11 11:27:59;;;;;;;1.20;0.60;;;;;;;18.50;100.00;100916.25;7394637;19;20020;-51
2022/10/11 11:30:34;;;;;;;0.57;0.38;;;;;;;19.37;100.00;100912.25;7391569;19;20372;-52
2022/10/11 11:33:00;;;;;;;0.93;0.40;;;;;;;19.68;100.00;100912.03;7391902;19;20010;-51
2022/10/11 11:35:26;;;;;;;0.50;0.15;;;;;;;20.07;100.00;100914.09;7394356;19;20022;-52
2022/10/11 11:37:59;;;;;;;0.40;0.15;;;;;;;20.30;97.33;100907.13;7395970;19;20020;-52